sensor_id;sensor_type;location;lat;lon;timestamp;P1;durP1;ratioP1;P2;durP2;ratioP2
50337;SDS011;46221;51.178;5.900;2023-09-08T00:00:35;6.68;;;4.18;;
50337;SDS011;46221;51.178;5.900;2023-09-08T00:03:02;8.75;;;3.90;;
50337;SDS011;46221;51.178;5.900;2023-09-08T00:05:29;5.65;;;4.10;;
50337;SDS011;46221;51.178;5.900;2023-09-08T00:07:55;5.10;;;3.83;;
50337;SDS011;46221;51.178;5.900;2023-09-08T00:10:21;6.68;;;4.30;;
50337;SDS011;46221;51.178;5.900;2023-09-08T00:12:48;5.57;;;4.32;;
50337;SDS011;46221;51.178;5.900;2023-09-08T00:15:14;5.38;;;3.90;;
50337;SDS011;46221;51.178;5.900;2023-09-08T00:17:40;4.93;;;3.63;;
50337;SDS011;46221;51.178;5.900;2023-09-08T00:20:07;5.07;;;4.30;;
50337;SDS011;46221;51.178;5.900;2023-09-08T00:22:35;5.93;;;3.63;;
50337;SDS011;46221;51.178;5.900;2023-09-08T00:25:02;4.75;;;3.65;;
50337;SDS011;46221;51.178;5.900;2023-09-08T00:27:28;5.45;;;4.07;;
50337;SDS011;46221;51.178;5.900;2023-09-08T00:29:54;6.65;;;4.00;;
50337;SDS011;46221;51.178;5.900;2023-09-08T00:32:21;5.10;;;3.53;;
50337;SDS011;46221;51.178;5.900;2023-09-08T00:34:47;7.03;;;3.92;;
50337;SDS011;46221;51.178;5.900;2023-09-08T00:37:14;5.45;;;3.78;;
50337;SDS011;46221;51.178;5.900;2023-09-08T00:39:40;5.68;;;3.78;;
50337;SDS011;46221;51.178;5.900;2023-09-08T00:42:07;5.85;;;4.10;;
50337;SDS011;46221;51.178;5.900;2023-09-08T00:44:33;5.05;;;3.83;;
50337;SDS011;46221;51.178;5.900;2023-09-08T00:47:00;5.65;;;3.80;;
50337;SDS011;46221;51.178;5.900;2023-09-08T00:49:26;4.53;;;3.53;;
50337;SDS011;46221;51.178;5.900;2023-09-08T00:51:54;4.82;;;3.60;;
50337;SDS011;46221;51.178;5.900;2023-09-08T00:54:21;4.80;;;3.42;;
50337;SDS011;46221;51.178;5.900;2023-09-08T00:56:48;5.00;;;3.72;;
50337;SDS011;46221;51.178;5.900;2023-09-08T00:59:15;5.05;;;4.00;;
50337;SDS011;46221;51.178;5.900;2023-09-08T01:01:41;5.50;;;4.60;;
50337;SDS011;46221;51.178;5.900;2023-09-08T01:04:08;5.82;;;3.80;;
50337;SDS011;46221;51.178;5.900;2023-09-08T01:06:34;4.30;;;3.53;;
50337;SDS011;46221;51.178;5.900;2023-09-08T01:09:01;5.88;;;3.83;;
50337;SDS011;46221;51.178;5.900;2023-09-08T01:11:28;5.60;;;4.00;;
50337;SDS011;46221;51.178;5.900;2023-09-08T01:13:56;5.15;;;4.05;;
50337;SDS011;46221;51.178;5.900;2023-09-08T01:16:22;4.55;;;3.92;;
50337;SDS011;46221;51.178;5.900;2023-09-08T01:18:49;6.88;;;3.83;;
50337;SDS011;46221;51.178;5.900;2023-09-08T01:26:13;5.00;;;4.10;;
50337;SDS011;46221;51.178;5.900;2023-09-08T01:28:42;5.10;;;4.13;;
50337;SDS011;46221;51.178;5.900;2023-09-08T01:31:10;5.45;;;4.03;;
50337;SDS011;46221;51.178;5.900;2023-09-08T01:33:36;4.68;;;3.42;;
50337;SDS011;46221;51.178;5.900;2023-09-08T01:36:03;6.20;;;4.10;;
50337;SDS011;46221;51.178;5.900;2023-09-08T01:38:30;4.88;;;3.55;;
50337;SDS011;46221;51.178;5.900;2023-09-08T01:40:56;5.38;;;3.97;;
50337;SDS011;46221;51.178;5.900;2023-09-08T01:43:23;4.93;;;3.80;;
50337;SDS011;46221;51.178;5.900;2023-09-08T01:45:50;5.32;;;3.67;;
50337;SDS011;46221;51.178;5.900;2023-09-08T01:48:16;4.43;;;3.50;;
50337;SDS011;46221;51.178;5.900;2023-09-08T01:50:42;6.45;;;3.92;;
50337;SDS011;46221;51.178;5.900;2023-09-08T01:53:09;5.57;;;4.03;;
50337;SDS011;46221;51.178;5.900;2023-09-08T01:55:35;4.53;;;3.67;;
50337;SDS011;46221;51.178;5.900;2023-09-08T01:58:02;4.72;;;3.58;;
50337;SDS011;46221;51.178;5.900;2023-09-08T02:00:28;4.30;;;3.80;;
50337;SDS011;46221;51.178;5.900;2023-09-08T02:02:54;5.22;;;4.25;;
50337;SDS011;46221;51.178;5.900;2023-09-08T02:05:21;5.15;;;3.65;;
50337;SDS011;46221;51.178;5.900;2023-09-08T02:07:48;5.78;;;3.85;;
50337;SDS011;46221;51.178;5.900;2023-09-08T02:10:15;5.50;;;3.70;;
50337;SDS011;46221;51.178;5.900;2023-09-08T02:12:41;5.55;;;3.47;;
50337;SDS011;46221;51.178;5.900;2023-09-08T02:15:08;5.43;;;4.00;;
50337;SDS011;46221;51.178;5.900;2023-09-08T02:17:35;5.25;;;3.70;;
50337;SDS011;46221;51.178;5.900;2023-09-08T02:20:01;5.50;;;3.65;;
50337;SDS011;46221;51.178;5.900;2023-09-08T02:22:29;4.72;;;4.10;;
50337;SDS011;46221;51.178;5.900;2023-09-08T02:24:55;4.55;;;3.40;;
50337;SDS011;46221;51.178;5.900;2023-09-08T02:27:24;5.28;;;4.07;;
50337;SDS011;46221;51.178;5.900;2023-09-08T02:29:50;4.82;;;3.75;;
50337;SDS011;46221;51.178;5.900;2023-09-08T02:32:17;5.18;;;3.67;;
50337;SDS011;46221;51.178;5.900;2023-09-08T02:34:43;5.10;;;4.20;;
50337;SDS011;46221;51.178;5.900;2023-09-08T02:37:09;5.78;;;3.67;;
50337;SDS011;46221;51.178;5.900;2023-09-08T02:39:36;4.22;;;3.72;;
50337;SDS011;46221;51.178;5.900;2023-09-08T02:42:02;5.75;;;3.90;;
50337;SDS011;46221;51.178;5.900;2023-09-08T02:44:32;4.22;;;3.55;;
50337;SDS011;46221;51.178;5.900;2023-09-08T02:46:58;5.20;;;3.78;;
50337;SDS011;46221;51.178;5.900;2023-09-08T02:49:24;5.25;;;4.05;;
50337;SDS011;46221;51.178;5.900;2023-09-08T02:51:51;4.47;;;3.58;;
50337;SDS011;46221;51.178;5.900;2023-09-08T02:54:17;6.32;;;3.58;;
50337;SDS011;46221;51.178;5.900;2023-09-08T02:56:43;4.90;;;3.90;;
50337;SDS011;46221;51.178;5.900;2023-09-08T02:59:10;4.28;;;3.70;;
50337;SDS011;46221;51.178;5.900;2023-09-08T03:01:36;5.40;;;3.90;;
50337;SDS011;46221;51.178;5.900;2023-09-08T03:04:03;4.00;;;3.15;;
50337;SDS011;46221;51.178;5.900;2023-09-08T03:06:29;4.63;;;3.58;;
50337;SDS011;46221;51.178;5.900;2023-09-08T03:08:56;4.88;;;4.13;;
50337;SDS011;46221;51.178;5.900;2023-09-08T03:11:24;4.65;;;3.47;;
50337;SDS011;46221;51.178;5.900;2023-09-08T03:13:50;4.82;;;3.72;;
50337;SDS011;46221;51.178;5.900;2023-09-08T03:16:17;5.18;;;4.13;;
50337;SDS011;46221;51.178;5.900;2023-09-08T03:18:43;6.15;;;3.97;;
50337;SDS011;46221;51.178;5.900;2023-09-08T03:21:09;4.15;;;3.53;;
50337;SDS011;46221;51.178;5.900;2023-09-08T03:23:40;5.32;;;4.13;;
50337;SDS011;46221;51.178;5.900;2023-09-08T03:26:07;5.78;;;4.20;;
50337;SDS011;46221;51.178;5.900;2023-09-08T03:28:33;4.15;;;3.45;;
50337;SDS011;46221;51.178;5.900;2023-09-08T03:31:01;5.32;;;3.97;;
50337;SDS011;46221;51.178;5.900;2023-09-08T03:33:27;4.45;;;3.67;;
50337;SDS011;46221;51.178;5.900;2023-09-08T03:35:54;4.75;;;3.72;;
50337;SDS011;46221;51.178;5.900;2023-09-08T03:38:21;5.20;;;3.85;;
50337;SDS011;46221;51.178;5.900;2023-09-08T03:40:48;5.40;;;3.88;;
50337;SDS011;46221;51.178;5.900;2023-09-08T03:43:14;4.18;;;3.45;;
50337;SDS011;46221;51.178;5.900;2023-09-08T03:45:41;4.70;;;3.55;;
50337;SDS011;46221;51.178;5.900;2023-09-08T03:48:08;4.63;;;3.55;;
50337;SDS011;46221;51.178;5.900;2023-09-08T03:50:34;4.57;;;3.58;;
50337;SDS011;46221;51.178;5.900;2023-09-08T03:53:01;4.57;;;3.72;;
50337;SDS011;46221;51.178;5.900;2023-09-08T03:55:30;4.70;;;4.20;;
50337;SDS011;46221;51.178;5.900;2023-09-08T03:57:56;5.78;;;3.55;;
50337;SDS011;46221;51.178;5.900;2023-09-08T04:00:23;5.15;;;3.97;;
50337;SDS011;46221;51.178;5.900;2023-09-08T04:02:49;5.15;;;4.05;;
50337;SDS011;46221;51.178;5.900;2023-09-08T04:05:16;4.78;;;3.65;;
50337;SDS011;46221;51.178;5.900;2023-09-08T04:07:45;4.55;;;3.67;;
50337;SDS011;46221;51.178;5.900;2023-09-08T04:10:11;4.70;;;3.92;;
50337;SDS011;46221;51.178;5.900;2023-09-08T04:12:41;4.20;;;3.65;;
50337;SDS011;46221;51.178;5.900;2023-09-08T04:15:08;4.60;;;3.90;;
50337;SDS011;46221;51.178;5.900;2023-09-08T04:17:35;3.95;;;3.33;;
50337;SDS011;46221;51.178;5.900;2023-09-08T04:20:05;4.82;;;3.95;;
50337;SDS011;46221;51.178;5.900;2023-09-08T04:22:32;4.50;;;3.65;;
50337;SDS011;46221;51.178;5.900;2023-09-08T04:24:59;4.60;;;3.63;;
50337;SDS011;46221;51.178;5.900;2023-09-08T04:27:28;4.22;;;3.42;;
50337;SDS011;46221;51.178;5.900;2023-09-08T04:29:55;5.38;;;3.90;;
50337;SDS011;46221;51.178;5.900;2023-09-08T04:32:21;4.57;;;3.75;;
50337;SDS011;46221;51.178;5.900;2023-09-08T04:34:48;4.65;;;3.75;;
50337;SDS011;46221;51.178;5.900;2023-09-08T04:37:15;4.50;;;3.45;;
50337;SDS011;46221;51.178;5.900;2023-09-08T04:39:42;4.30;;;3.60;;
50337;SDS011;46221;51.178;5.900;2023-09-08T04:42:08;4.68;;;3.60;;
50337;SDS011;46221;51.178;5.900;2023-09-08T04:44:34;4.55;;;3.58;;
50337;SDS011;46221;51.178;5.900;2023-09-08T04:47:01;5.50;;;3.85;;
50337;SDS011;46221;51.178;5.900;2023-09-08T04:49:27;5.45;;;4.00;;
50337;SDS011;46221;51.178;5.900;2023-09-08T04:51:55;5.63;;;3.88;;
50337;SDS011;46221;51.178;5.900;2023-09-08T04:54:21;6.07;;;4.00;;
50337;SDS011;46221;51.178;5.900;2023-09-08T04:56:48;5.60;;;3.70;;
50337;SDS011;46221;51.178;5.900;2023-09-08T04:59:15;5.45;;;3.60;;
50337;SDS011;46221;51.178;5.900;2023-09-08T05:01:41;5.63;;;3.75;;
50337;SDS011;46221;51.178;5.900;2023-09-08T05:04:09;4.82;;;4.07;;
50337;SDS011;46221;51.178;5.900;2023-09-08T05:06:37;4.65;;;3.70;;
50337;SDS011;46221;51.178;5.900;2023-09-08T05:09:03;5.70;;;3.95;;
50337;SDS011;46221;51.178;5.900;2023-09-08T05:11:30;4.28;;;3.58;;
50337;SDS011;46221;51.178;5.900;2023-09-08T05:13:56;4.25;;;3.53;;
50337;SDS011;46221;51.178;5.900;2023-09-08T05:16:24;5.45;;;3.65;;
50337;SDS011;46221;51.178;5.900;2023-09-08T05:19:03;6.15;;;3.80;;
50337;SDS011;46221;51.178;5.900;2023-09-08T05:21:30;5.72;;;3.45;;
50337;SDS011;46221;51.178;5.900;2023-09-08T05:23:57;4.18;;;3.42;;
50337;SDS011;46221;51.178;5.900;2023-09-08T05:26:23;10.77;;;3.83;;
50337;SDS011;46221;51.178;5.900;2023-09-08T05:28:49;4.43;;;3.60;;
50337;SDS011;46221;51.178;5.900;2023-09-08T05:31:16;7.13;;;4.15;;
50337;SDS011;46221;51.178;5.900;2023-09-08T05:33:42;5.72;;;4.30;;
50337;SDS011;46221;51.178;5.900;2023-09-08T05:36:08;6.97;;;4.72;;
50337;SDS011;46221;51.178;5.900;2023-09-08T05:38:37;6.97;;;4.63;;
50337;SDS011;46221;51.178;5.900;2023-09-08T05:41:03;5.93;;;4.80;;
50337;SDS011;46221;51.178;5.900;2023-09-08T05:43:30;8.23;;;4.80;;
50337;SDS011;46221;51.178;5.900;2023-09-08T05:45:56;6.47;;;4.90;;
50337;SDS011;46221;51.178;5.900;2023-09-08T05:48:23;5.85;;;5.03;;
50337;SDS011;46221;51.178;5.900;2023-09-08T05:50:49;8.52;;;5.30;;
50337;SDS011;46221;51.178;5.900;2023-09-08T05:53:15;8.73;;;5.32;;
50337;SDS011;46221;51.178;5.900;2023-09-08T05:55:42;10.30;;;5.80;;
50337;SDS011;46221;51.178;5.900;2023-09-08T05:58:08;7.78;;;5.07;;
50337;SDS011;46221;51.178;5.900;2023-09-08T06:00:34;6.80;;;5.72;;
50337;SDS011;46221;51.178;5.900;2023-09-08T06:03:01;8.68;;;5.68;;
50337;SDS011;46221;51.178;5.900;2023-09-08T06:05:28;8.65;;;5.53;;
50337;SDS011;46221;51.178;5.900;2023-09-08T06:07:54;8.27;;;5.53;;
50337;SDS011;46221;51.178;5.900;2023-09-08T06:10:33;13.45;;;6.30;;
50337;SDS011;46221;51.178;5.900;2023-09-08T06:12:59;7.80;;;5.80;;
50337;SDS011;46221;51.178;5.900;2023-09-08T06:15:26;9.85;;;5.85;;
50337;SDS011;46221;51.178;5.900;2023-09-08T06:17:52;12.55;;;6.35;;
50337;SDS011;46221;51.178;5.900;2023-09-08T06:20:19;10.82;;;6.30;;
50337;SDS011;46221;51.178;5.900;2023-09-08T06:22:45;11.35;;;6.22;;
50337;SDS011;46221;51.178;5.900;2023-09-08T06:25:11;9.45;;;6.28;;
50337;SDS011;46221;51.178;5.900;2023-09-08T06:27:38;9.05;;;6.13;;
50337;SDS011;46221;51.178;5.900;2023-09-08T06:30:04;9.75;;;6.30;;
50337;SDS011;46221;51.178;5.900;2023-09-08T06:32:31;10.13;;;6.10;;
50337;SDS011;46221;51.178;5.900;2023-09-08T06:34:57;9.43;;;6.10;;
50337;SDS011;46221;51.178;5.900;2023-09-08T06:37:24;9.65;;;6.57;;
50337;SDS011;46221;51.178;5.900;2023-09-08T06:39:50;8.85;;;6.00;;
50337;SDS011;46221;51.178;5.900;2023-09-08T06:42:16;11.02;;;6.38;;
50337;SDS011;46221;51.178;5.900;2023-09-08T06:44:43;11.77;;;6.80;;
50337;SDS011;46221;51.178;5.900;2023-09-08T06:47:09;12.73;;;6.82;;
50337;SDS011;46221;51.178;5.900;2023-09-08T06:49:36;13.88;;;7.05;;
50337;SDS011;46221;51.178;5.900;2023-09-08T06:52:03;11.65;;;6.68;;
50337;SDS011;46221;51.178;5.900;2023-09-08T06:54:30;11.65;;;6.88;;
50337;SDS011;46221;51.178;5.900;2023-09-08T06:56:58;9.50;;;5.95;;
50337;SDS011;46221;51.178;5.900;2023-09-08T06:59:25;8.88;;;6.95;;
50337;SDS011;46221;51.178;5.900;2023-09-08T07:01:51;10.73;;;6.28;;
50337;SDS011;46221;51.178;5.900;2023-09-08T07:04:18;8.25;;;5.97;;
50337;SDS011;46221;51.178;5.900;2023-09-08T07:06:44;11.40;;;7.47;;
50337;SDS011;46221;51.178;5.900;2023-09-08T07:09:12;8.20;;;6.32;;
50337;SDS011;46221;51.178;5.900;2023-09-08T07:11:39;8.77;;;6.45;;
50337;SDS011;46221;51.178;5.900;2023-09-08T07:14:05;10.13;;;6.65;;
50337;SDS011;46221;51.178;5.900;2023-09-08T07:16:31;11.00;;;6.20;;
50337;SDS011;46221;51.178;5.900;2023-09-08T07:18:58;9.20;;;6.40;;
50337;SDS011;46221;51.178;5.900;2023-09-08T07:21:27;7.35;;;6.03;;
50337;SDS011;46221;51.178;5.900;2023-09-08T07:23:53;9.32;;;5.95;;
50337;SDS011;46221;51.178;5.900;2023-09-08T07:26:22;13.15;;;7.57;;
50337;SDS011;46221;51.178;5.900;2023-09-08T07:28:48;9.23;;;5.85;;
50337;SDS011;46221;51.178;5.900;2023-09-08T07:31:15;9.30;;;6.40;;
50337;SDS011;46221;51.178;5.900;2023-09-08T07:33:42;10.57;;;6.18;;
50337;SDS011;46221;51.178;5.900;2023-09-08T07:36:08;9.25;;;6.22;;
50337;SDS011;46221;51.178;5.900;2023-09-08T07:38:35;9.60;;;6.25;;
50337;SDS011;46221;51.178;5.900;2023-09-08T07:41:02;9.38;;;6.63;;
50337;SDS011;46221;51.178;5.900;2023-09-08T07:43:28;11.77;;;6.38;;
50337;SDS011;46221;51.178;5.900;2023-09-08T07:45:55;12.00;;;6.90;;
50337;SDS011;46221;51.178;5.900;2023-09-08T07:48:21;9.18;;;6.45;;
50337;SDS011;46221;51.178;5.900;2023-09-08T07:50:48;10.60;;;6.60;;
50337;SDS011;46221;51.178;5.900;2023-09-08T07:53:14;8.02;;;6.15;;
50337;SDS011;46221;51.178;5.900;2023-09-08T07:55:40;14.40;;;6.60;;
50337;SDS011;46221;51.178;5.900;2023-09-08T07:58:07;12.25;;;6.18;;
50337;SDS011;46221;51.178;5.900;2023-09-08T08:00:33;7.43;;;5.50;;
50337;SDS011;46221;51.178;5.900;2023-09-08T08:03:00;8.23;;;5.82;;
50337;SDS011;46221;51.178;5.900;2023-09-08T08:05:26;10.52;;;6.03;;
50337;SDS011;46221;51.178;5.900;2023-09-08T08:07:53;9.43;;;5.93;;
50337;SDS011;46221;51.178;5.900;2023-09-08T08:10:19;11.68;;;6.57;;
50337;SDS011;46221;51.178;5.900;2023-09-08T08:12:46;9.23;;;6.35;;
50337;SDS011;46221;51.178;5.900;2023-09-08T08:15:12;8.68;;;5.97;;
50337;SDS011;46221;51.178;5.900;2023-09-08T08:17:39;7.88;;;6.15;;
50337;SDS011;46221;51.178;5.900;2023-09-08T08:20:06;9.18;;;6.53;;
50337;SDS011;46221;51.178;5.900;2023-09-08T08:22:38;7.68;;;5.72;;
50337;SDS011;46221;51.178;5.900;2023-09-08T08:25:04;8.55;;;5.95;;
50337;SDS011;46221;51.178;5.900;2023-09-08T08:27:31;10.75;;;6.38;;
50337;SDS011;46221;51.178;5.900;2023-09-08T08:29:58;7.70;;;5.90;;
50337;SDS011;46221;51.178;5.900;2023-09-08T08:32:27;9.63;;;6.00;;
50337;SDS011;46221;51.178;5.900;2023-09-08T08:34:53;8.27;;;6.57;;
50337;SDS011;46221;51.178;5.900;2023-09-08T08:37:23;6.85;;;6.13;;
50337;SDS011;46221;51.178;5.900;2023-09-08T08:39:49;7.88;;;5.65;;
50337;SDS011;46221;51.178;5.900;2023-09-08T08:42:16;9.38;;;5.20;;
50337;SDS011;46221;51.178;5.900;2023-09-08T08:44:42;6.45;;;5.50;;
50337;SDS011;46221;51.178;5.900;2023-09-08T08:47:10;8.15;;;6.10;;
50337;SDS011;46221;51.178;5.900;2023-09-08T08:49:37;7.57;;;5.72;;
50337;SDS011;46221;51.178;5.900;2023-09-08T08:52:05;9.02;;;5.30;;
50337;SDS011;46221;51.178;5.900;2023-09-08T08:54:34;8.30;;;5.70;;
50337;SDS011;46221;51.178;5.900;2023-09-08T08:57:01;7.70;;;5.47;;
50337;SDS011;46221;51.178;5.900;2023-09-08T08:59:28;7.40;;;5.75;;
50337;SDS011;46221;51.178;5.900;2023-09-08T09:01:55;8.02;;;5.63;;
50337;SDS011;46221;51.178;5.900;2023-09-08T09:04:22;10.07;;;5.70;;
50337;SDS011;46221;51.178;5.900;2023-09-08T09:06:48;8.07;;;5.55;;
50337;SDS011;46221;51.178;5.900;2023-09-08T09:09:15;8.73;;;5.90;;
50337;SDS011;46221;51.178;5.900;2023-09-08T09:11:41;10.05;;;5.65;;
50337;SDS011;46221;51.178;5.900;2023-09-08T09:14:08;9.82;;;6.03;;
50337;SDS011;46221;51.178;5.900;2023-09-08T09:16:41;8.43;;;5.63;;
50337;SDS011;46221;51.178;5.900;2023-09-08T09:19:07;7.75;;;5.13;;
50337;SDS011;46221;51.178;5.900;2023-09-08T09:21:48;6.80;;;5.25;;
50337;SDS011;46221;51.178;5.900;2023-09-08T09:24:18;7.15;;;5.20;;
50337;SDS011;46221;51.178;5.900;2023-09-08T09:26:55;6.82;;;5.68;;
50337;SDS011;46221;51.178;5.900;2023-09-08T09:29:21;7.35;;;5.10;;
50337;SDS011;46221;51.178;5.900;2023-09-08T09:31:51;5.68;;;4.93;;
50337;SDS011;46221;51.178;5.900;2023-09-08T09:34:18;7.43;;;5.55;;
50337;SDS011;46221;51.178;5.900;2023-09-08T09:36:47;6.97;;;5.55;;
50337;SDS011;46221;51.178;5.900;2023-09-08T09:39:19;7.53;;;5.53;;
50337;SDS011;46221;51.178;5.900;2023-09-08T09:41:48;6.93;;;5.35;;
50337;SDS011;46221;51.178;5.900;2023-09-08T09:44:17;6.68;;;5.50;;
50337;SDS011;46221;51.178;5.900;2023-09-08T09:46:44;5.93;;;5.00;;
50337;SDS011;46221;51.178;5.900;2023-09-08T09:49:12;6.95;;;5.07;;
50337;SDS011;46221;51.178;5.900;2023-09-08T09:51:43;7.10;;;5.05;;
50337;SDS011;46221;51.178;5.900;2023-09-08T09:54:10;6.28;;;4.88;;
50337;SDS011;46221;51.178;5.900;2023-09-08T09:56:37;8.20;;;4.97;;
50337;SDS011;46221;51.178;5.900;2023-09-08T09:59:04;6.28;;;4.90;;
50337;SDS011;46221;51.178;5.900;2023-09-08T10:01:31;6.10;;;5.25;;
50337;SDS011;46221;51.178;5.900;2023-09-08T10:03:57;7.15;;;4.75;;
50337;SDS011;46221;51.178;5.900;2023-09-08T10:06:25;7.68;;;5.00;;
50337;SDS011;46221;51.178;5.900;2023-09-08T10:08:52;8.93;;;5.20;;
50337;SDS011;46221;51.178;5.900;2023-09-08T10:11:21;5.68;;;5.07;;
50337;SDS011;46221;51.178;5.900;2023-09-08T10:13:49;5.93;;;4.85;;
50337;SDS011;46221;51.178;5.900;2023-09-08T10:16:16;5.72;;;4.93;;
50337;SDS011;46221;51.178;5.900;2023-09-08T10:18:44;8.88;;;5.15;;
50337;SDS011;46221;51.178;5.900;2023-09-08T10:21:12;5.65;;;4.80;;
50337;SDS011;46221;51.178;5.900;2023-09-08T10:23:40;6.10;;;5.47;;
50337;SDS011;46221;51.178;5.900;2023-09-08T10:26:11;6.00;;;4.20;;
50337;SDS011;46221;51.178;5.900;2023-09-08T10:28:38;6.60;;;4.57;;
50337;SDS011;46221;51.178;5.900;2023-09-08T10:31:05;5.10;;;4.45;;
50337;SDS011;46221;51.178;5.900;2023-09-08T10:33:32;5.22;;;4.72;;
50337;SDS011;46221;51.178;5.900;2023-09-08T10:36:00;5.70;;;4.90;;
50337;SDS011;46221;51.178;5.900;2023-09-08T10:38:31;6.93;;;4.75;;
50337;SDS011;46221;51.178;5.900;2023-09-08T10:43:46;5.20;;;4.70;;
50337;SDS011;46221;51.178;5.900;2023-09-08T10:46:20;6.15;;;4.60;;
50337;SDS011;46221;51.178;5.900;2023-09-08T10:48:47;5.30;;;4.65;;
50337;SDS011;46221;51.178;5.900;2023-09-08T10:51:14;5.28;;;4.50;;
50337;SDS011;46221;51.178;5.900;2023-09-08T10:53:40;5.88;;;4.38;;
50337;SDS011;46221;51.178;5.900;2023-09-08T10:56:07;7.05;;;5.00;;
50337;SDS011;46221;51.178;5.900;2023-09-08T11:01:13;5.45;;;4.47;;
50337;SDS011;46221;51.178;5.900;2023-09-08T11:06:08;6.13;;;4.72;;
50337;SDS011;46221;51.178;5.900;2023-09-08T11:08:37;6.05;;;4.90;;
50337;SDS011;46221;51.178;5.900;2023-09-08T11:11:04;5.47;;;4.45;;
50337;SDS011;46221;51.178;5.900;2023-09-08T11:13:30;4.32;;;3.92;;
50337;SDS011;46221;51.178;5.900;2023-09-08T11:15:56;6.07;;;4.72;;
50337;SDS011;46221;51.178;5.900;2023-09-08T11:18:29;6.00;;;4.57;;
50337;SDS011;46221;51.178;5.900;2023-09-08T11:20:56;5.07;;;4.38;;
50337;SDS011;46221;51.178;5.900;2023-09-08T11:23:23;6.00;;;4.45;;
50337;SDS011;46221;51.178;5.900;2023-09-08T11:25:51;4.78;;;4.28;;
50337;SDS011;46221;51.178;5.900;2023-09-08T11:28:17;5.45;;;4.65;;
50337;SDS011;46221;51.178;5.900;2023-09-08T11:30:48;6.10;;;4.70;;
50337;SDS011;46221;51.178;5.900;2023-09-08T11:33:18;6.00;;;4.93;;
50337;SDS011;46221;51.178;5.900;2023-09-08T11:35:45;5.78;;;4.60;;
50337;SDS011;46221;51.178;5.900;2023-09-08T11:38:11;5.72;;;4.95;;
50337;SDS011;46221;51.178;5.900;2023-09-08T11:40:38;5.75;;;4.70;;
50337;SDS011;46221;51.178;5.900;2023-09-08T11:43:05;5.53;;;4.60;;
50337;SDS011;46221;51.178;5.900;2023-09-08T11:45:35;6.43;;;4.50;;
50337;SDS011;46221;51.178;5.900;2023-09-08T11:48:03;6.22;;;4.35;;
50337;SDS011;46221;51.178;5.900;2023-09-08T11:50:30;6.20;;;4.68;;
50337;SDS011;46221;51.178;5.900;2023-09-08T11:52:57;4.85;;;4.35;;
50337;SDS011;46221;51.178;5.900;2023-09-08T11:55:26;5.13;;;4.10;;
50337;SDS011;46221;51.178;5.900;2023-09-08T11:57:53;5.15;;;4.53;;
50337;SDS011;46221;51.178;5.900;2023-09-08T12:00:29;5.65;;;4.32;;
50337;SDS011;46221;51.178;5.900;2023-09-08T12:02:56;5.95;;;4.57;;
50337;SDS011;46221;51.178;5.900;2023-09-08T12:05:35;4.25;;;3.85;;
50337;SDS011;46221;51.178;5.900;2023-09-08T12:08:03;5.05;;;4.53;;
50337;SDS011;46221;51.178;5.900;2023-09-08T12:10:37;4.68;;;4.07;;
50337;SDS011;46221;51.178;5.900;2023-09-08T12:13:03;5.72;;;4.20;;
50337;SDS011;46221;51.178;5.900;2023-09-08T12:18:06;4.72;;;4.22;;
50337;SDS011;46221;51.178;5.900;2023-09-08T12:20:33;6.07;;;4.28;;
50337;SDS011;46221;51.178;5.900;2023-09-08T12:23:00;5.05;;;3.92;;
50337;SDS011;46221;51.178;5.900;2023-09-08T12:25:27;4.80;;;4.25;;
50337;SDS011;46221;51.178;5.900;2023-09-08T12:27:54;4.70;;;4.07;;
50337;SDS011;46221;51.178;5.900;2023-09-08T12:30:21;5.60;;;4.45;;
50337;SDS011;46221;51.178;5.900;2023-09-08T12:32:48;5.15;;;4.43;;
50337;SDS011;46221;51.178;5.900;2023-09-08T12:35:19;5.20;;;4.28;;
50337;SDS011;46221;51.178;5.900;2023-09-08T12:37:45;4.72;;;4.30;;
50337;SDS011;46221;51.178;5.900;2023-09-08T12:40:12;4.72;;;4.05;;
50337;SDS011;46221;51.178;5.900;2023-09-08T12:42:38;4.63;;;3.95;;
50337;SDS011;46221;51.178;5.900;2023-09-08T12:45:15;5.68;;;4.45;;
50337;SDS011;46221;51.178;5.900;2023-09-08T12:47:42;4.85;;;3.92;;
50337;SDS011;46221;51.178;5.900;2023-09-08T12:50:09;4.50;;;4.03;;
50337;SDS011;46221;51.178;5.900;2023-09-08T12:52:36;4.43;;;3.70;;
50337;SDS011;46221;51.178;5.900;2023-09-08T12:55:05;6.18;;;4.32;;
50337;SDS011;46221;51.178;5.900;2023-09-08T12:57:32;5.50;;;4.32;;
50337;SDS011;46221;51.178;5.900;2023-09-08T12:59:58;4.57;;;3.95;;
50337;SDS011;46221;51.178;5.900;2023-09-08T13:02:25;4.30;;;3.60;;
50337;SDS011;46221;51.178;5.900;2023-09-08T13:04:52;4.47;;;3.88;;
50337;SDS011;46221;51.178;5.900;2023-09-08T13:07:18;5.07;;;3.97;;
50337;SDS011;46221;51.178;5.900;2023-09-08T13:09:45;4.97;;;3.95;;
50337;SDS011;46221;51.178;5.900;2023-09-08T13:12:11;5.22;;;3.75;;
50337;SDS011;46221;51.178;5.900;2023-09-08T13:14:39;4.22;;;3.83;;
50337;SDS011;46221;51.178;5.900;2023-09-08T13:17:06;5.03;;;3.90;;
50337;SDS011;46221;51.178;5.900;2023-09-08T13:19:32;5.05;;;3.85;;
50337;SDS011;46221;51.178;5.900;2023-09-08T13:21:58;4.32;;;3.60;;
50337;SDS011;46221;51.178;5.900;2023-09-08T13:24:25;4.55;;;3.50;;
50337;SDS011;46221;51.178;5.900;2023-09-08T13:26:51;4.47;;;3.97;;
50337;SDS011;46221;51.178;5.900;2023-09-08T13:29:18;4.30;;;3.90;;
50337;SDS011;46221;51.178;5.900;2023-09-08T13:31:44;3.90;;;3.40;;
50337;SDS011;46221;51.178;5.900;2023-09-08T13:34:11;5.00;;;3.78;;
50337;SDS011;46221;51.178;5.900;2023-09-08T13:36:37;4.32;;;3.67;;
50337;SDS011;46221;51.178;5.900;2023-09-08T13:39:04;4.55;;;3.92;;
50337;SDS011;46221;51.178;5.900;2023-09-08T13:44:12;4.00;;;3.60;;
50337;SDS011;46221;51.178;5.900;2023-09-08T13:46:38;4.60;;;3.40;;
50337;SDS011;46221;51.178;5.900;2023-09-08T13:49:05;4.18;;;3.70;;
50337;SDS011;46221;51.178;5.900;2023-09-08T13:51:32;4.32;;;3.53;;
50337;SDS011;46221;51.178;5.900;2023-09-08T13:54:01;4.68;;;3.80;;
50337;SDS011;46221;51.178;5.900;2023-09-08T13:56:28;5.90;;;3.63;;
50337;SDS011;46221;51.178;5.900;2023-09-08T13:58:58;4.18;;;3.58;;
50337;SDS011;46221;51.178;5.900;2023-09-08T14:01:29;4.35;;;3.75;;
50337;SDS011;46221;51.178;5.900;2023-09-08T14:03:59;4.10;;;3.70;;
50337;SDS011;46221;51.178;5.900;2023-09-08T14:06:34;3.70;;;3.22;;
50337;SDS011;46221;51.178;5.900;2023-09-08T14:09:03;4.35;;;3.47;;
50337;SDS011;46221;51.178;5.900;2023-09-08T14:11:33;4.45;;;3.67;;
50337;SDS011;46221;51.178;5.900;2023-09-08T14:14:19;4.32;;;3.63;;
50337;SDS011;46221;51.178;5.900;2023-09-08T14:16:47;4.10;;;3.47;;
50337;SDS011;46221;51.178;5.900;2023-09-08T14:19:14;4.93;;;3.75;;
50337;SDS011;46221;51.178;5.900;2023-09-08T14:21:40;3.83;;;3.13;;
50337;SDS011;46221;51.178;5.900;2023-09-08T14:24:06;4.07;;;3.50;;
50337;SDS011;46221;51.178;5.900;2023-09-08T14:26:36;4.20;;;3.60;;
50337;SDS011;46221;51.178;5.900;2023-09-08T14:29:02;4.22;;;3.70;;
50337;SDS011;46221;51.178;5.900;2023-09-08T14:31:29;5.10;;;3.67;;
50337;SDS011;46221;51.178;5.900;2023-09-08T14:33:55;3.88;;;3.40;;
50337;SDS011;46221;51.178;5.900;2023-09-08T14:36:22;3.70;;;3.20;;
50337;SDS011;46221;51.178;5.900;2023-09-08T14:38:49;4.53;;;3.70;;
50337;SDS011;46221;51.178;5.900;2023-09-08T14:41:15;3.70;;;3.10;;
50337;SDS011;46221;51.178;5.900;2023-09-08T14:43:41;3.70;;;3.10;;
50337;SDS011;46221;51.178;5.900;2023-09-08T14:46:08;4.55;;;3.65;;
50337;SDS011;46221;51.178;5.900;2023-09-08T14:48:34;4.35;;;3.40;;
50337;SDS011;46221;51.178;5.900;2023-09-08T14:51:02;4.30;;;3.75;;
50337;SDS011;46221;51.178;5.900;2023-09-08T14:53:30;4.20;;;3.35;;
50337;SDS011;46221;51.178;5.900;2023-09-08T14:55:58;3.78;;;3.30;;
50337;SDS011;46221;51.178;5.900;2023-09-08T14:58:25;4.07;;;3.65;;
50337;SDS011;46221;51.178;5.900;2023-09-08T15:00:52;4.22;;;3.17;;
50337;SDS011;46221;51.178;5.900;2023-09-08T15:03:18;4.10;;;3.45;;